Flight Track Log - Related Links

Times and Time Zones

All times are in EST time to prevent confusion due to time zone crossing. See the N111KC flight status page for this flight to view local times or setup timezone preferences in your user account.

Time Position Orientation Groundspeed Altitude Reporting Facility
EST Latitude Longitude Course Direction KTS MPH feet Rate Location/Type
Tue 05:09:00 PM 30.2172 -85.4285 108° East  Level Estimated
Tue 05:10:00 PM 30.2005 -85.3644 107° East  Level FlightAware Approximate
Tue 05:11:00 PM 30.1839 -85.3003 107° East  Level FlightAware Approximate
Tue 05:12:00 PM 30.1600 -85.2394 113° Southeast  Level Estimated
Tue 05:13:00 PM 30.1421 -85.1758 108° East  Level FlightAware Approximate
Tue 05:14:00 PM 30.1242 -85.1122 108° East  Level FlightAware Approximate
Tue 05:14:22 PM 30.2242 -85.2269 108° East 223 257 14,300  Level Jacksonville Center
Tue 05:15:00 PM 30.1000 -85.0515 113° Southeast  Level Estimated
Tue 05:15:22 PM 30.2006 -85.1567 111° Southeast 223 257 15,400  Level Jacksonville Center
Tue 05:16:00 PM 30.0815 -84.9882 109° East  Level FlightAware Approximate
Tue 05:16:22 PM 30.1767 -85.0911 113° Southeast 223 257 16,400  Level Jacksonville Center
Tue 05:17:00 PM 30.0572 -84.9276 109° East  Level Estimated
Tue 05:17:22 PM 30.1567 -85.0331 112° Southeast 223 257 17,400  Level Jacksonville Center
Tue 05:18:00 PM 30.0392 -84.8640 108° East  Level FlightAware Approximate
Tue 05:18:22 PM 30.1347 -84.9678 111° Southeast 231 266 18,200  Level Jacksonville Center
Tue 05:19:22 PM 30.1150 -84.9025 109° East 226 260 19,100 850 Climbing Jacksonville Center
Tue 05:20:22 PM 30.0931 -84.8372 111° Southeast 221 254 19,900 750 Climbing Jacksonville Center
Tue 05:21:22 PM 30.0731 -84.7694 109° East 221 254 20,600 550 Climbing Jacksonville Center
Tue 05:22:22 PM 30.0511 -84.6994 110° East 221 254 21,000 200 Climbing Jacksonville Center
Tue 05:23:22 PM 30.0292 -84.6272 109° East 231 266 21,000  Level Jacksonville Center
Tue 05:24:22 PM 30.0053 -84.5475 109° East 243 280 21,000 -50 Level Jacksonville Center
Tue 05:25:22 PM 29.9769 -84.4703 113° Southeast 254 292 20,900 -33 Descending Jacksonville Center
Tue 05:27:22 PM 29.9203 -84.3136 113° Southeast 259 298 20,900  Level Jacksonville Center
Tue 05:28:22 PM 29.8961 -84.2342 109° East 259 298 20,900  Level Jacksonville Center
Tue 05:29:22 PM 29.8678 -84.1547 112° Southeast 259 298 20,900 -400 Level Jacksonville Center
Tue 05:30:22 PM 29.8372 -84.0706 113° Southeast 259 298 20,100 -650 Descending Jacksonville Center
Tue 05:31:22 PM 29.8067 -83.9842 112° Southeast 271 312 19,600 -550 Descending Jacksonville Center
Tue 05:32:22 PM 29.7761 -83.9000 113° Southeast 276 318 19,000 -350 Descending Jacksonville Center
Tue 05:33:22 PM 29.7475 -83.8158 111° Southeast 276 318 18,900 -50 Descending Jacksonville Center
Tue 05:34:22 PM 29.7208 -83.7369 111° Southeast 276 318 18,900  Level Jacksonville Center
Tue 05:35:22 PM 29.6922 -83.6575 113° Southeast 265 305 18,900 -450 Level Jacksonville Center
Tue 05:36:22 PM 29.6633 -83.5786 113° Southeast 265 305 18,000 -1,000 Descending Jacksonville Center
Tue 05:37:22 PM 29.6325 -83.4900 112° Southeast 277 319 16,900 -600 Descending Jacksonville Center
Tue 05:38:22 PM 29.6058 -83.4086 111° Southeast 277 319 16,800 -50 Descending Jacksonville Center
Tue 05:39:22 PM 29.5789 -83.3319 112° Southeast 267 307 16,800  Level Jacksonville Center
Tue 05:40:22 PM 29.5542 -83.2556 110° East 262 302 16,800  Level Jacksonville Center
Tue 05:41:22 PM 29.5292 -83.1839 112° Southeast 251 289 16,800 50 Level Jacksonville Center
Tue 05:42:22 PM 29.5000 -83.1072 114° Southeast 251 289 16,900  Climbing Jacksonville Center
Tue 05:43:22 PM 29.4689 -83.0286 114° Southeast 257 296 16,800  Descending Jacksonville Center
Tue 05:44:22 PM 29.4397 -82.9475 112° Southeast 259 298 16,900 -250 Climbing Jacksonville Center
Tue 05:45:22 PM 29.4125 -82.8736 113° Southeast 257 296 16,300 -759 Descending Jacksonville Center
Tue 05:45:41 PM 29.3981 -82.8425 118° Southeast 277 319 15,900 -700 Descending Jacksonville Center
Tue 05:46:22 PM 29.3833 -82.7925 109° East 262 302 15,600 -627 Descending Jacksonville Center
Tue 05:46:48 PM 29.3644 -82.7472 116° Southeast 285 328 15,200 -667 Descending Jacksonville Center
Tue 05:47:43 PM 29.3394 -82.6733 111° Southeast 276 318 14,700 -638 Descending Jacksonville Center
Tue 05:48:22 PM 29.3247 -82.6281 110° East 269 310 14,200 -1,082 Descending Jacksonville Center
Tue 05:48:44 PM 29.3078 -82.5925 119° Southeast 274 315 13,600 -1,200 Descending Jacksonville Center
Tue 05:49:22 PM 29.2931 -82.5472 110° East 269 310 13,000 -1,200 Descending Jacksonville Center
Tue 05:49:39 PM 29.2806 -82.5142 113° Southeast 287 330 12,500 -1,000 Descending Jacksonville Center
Tue 05:50:22 PM 29.2636 -82.4642 111° Southeast 274 315 12,000 -900 Descending Jacksonville Center
Tue 05:50:39 PM 29.2511 -82.4308 113° Southeast 278 320 11,600 -800 Descending Jacksonville Center
Tue 05:51:22 PM 29.2342 -82.3856 113° Southeast 274 315 11,200 -896 Descending Jacksonville Center
Tue 05:51:46 PM 29.2194 -82.3453 113° Southeast 254 292 10,600 -1,100 Descending Jacksonville Center
Tue 05:52:22 PM 29.2067 -82.3072 111° Southeast 274 315 10,100 -1,279 Descending Jacksonville Center
Tue 05:52:47 PM 29.1919 -82.2694 114° Southeast 261 300 9,300 -1,300 Descending Jacksonville Center
Tue 05:53:22 PM 29.1792 -82.2314 111° Southeast 269 310 8,800 -984 Descending Jacksonville Center
Tue 05:53:48 PM 29.1561 -82.1983 129° Southeast 254 292 8,300 -744 Descending Jacksonville Center
Tue 05:55:31 PM 29.0833 -82.0833 126° Southeast 242 278 7,200 -515 Descending Orlando TRACON
Tue 05:56:31 PM 29.0500 -82.0333 127° Southeast 236 272 6,900 -150 Descending Orlando TRACON
Tue 05:57:31 PM 29.0000 -81.9833 139° Southeast 219 252 6,900  Level Orlando TRACON
Tue 05:58:31 PM 28.9667 -81.9167 120° Southeast 218 251 6,900  Level Orlando TRACON
Tue 05:59:31 PM 28.9333 -81.8667 127° Southeast 219 252 6,900  Level Orlando TRACON
Tue 06:00:31 PM 28.9000 -81.8000 120° Southeast 237 273 6,900 -56 Level Orlando TRACON
Tue 06:01:19 PM 28.8833 -81.7500 111° Southeast 228 262 6,800 -474 Descending Orlando TRACON
Tue 06:02:25 PM 28.8500 -81.6667 115° Southeast 247 284 6,000 -762 Descending Orlando TRACON
Tue 06:03:25 PM 28.8167 -81.6000 120° Southeast 249 287 5,200 -750 Descending Orlando TRACON
Tue 06:04:25 PM 28.8000 -81.5333 106° East 242 278 4,500 -900 Descending Orlando TRACON
Tue 06:05:25 PM 28.7667 -81.4667 120° Southeast 247 284 3,400 -700 Descending Orlando TRACON
Tue 06:06:25 PM 28.7333 -81.4000 120° Southeast 211 243 3,100 -381 Descending Orlando TRACON
Tue 06:07:31 PM 28.7167 -81.3333 106° East 214 246 2,600 -397 Descending Orlando TRACON
Tue 06:08:26 PM 28.6833 -81.2833 127° Southeast 199 229 2,300 -421 Descending Orlando TRACON
Tue 06:09:25 PM 28.6500 -81.2333 127° Southeast 194 223 1,800 -403 Descending Orlando TRACON
Tue 06:10:25 PM 28.6000 -81.2167 164° South 166 191 1,500 -150 Descending Orlando TRACON
Tue 06:11:25 PM 28.5833 -81.2500 240° Southwest 119 137 1,500 -286 Level Orlando TRACON
Tue 06:12:31 PM 28.5667 -81.2833 240° Southwest 111 128 900 -571 Descending Orlando TRACON
Tue 06:13:31 PM 28.5500 -81.3167 240° Southwest 111 128 300 -600 Descending Orlando TRACON
Tue 06:15:00 PM 28.5333 -81.3167 90° East  Level FlightAware Approximate
Tue 06:22:00 PM 28.5455 -81.3329 90° East  Level Estimated
Tue 06:23:00 PM 28.5455 -81.3329 90° East  Level Estimated
Tue 06:24:00 PM 28.5455 -81.3329 90° East  Level Estimated

Login

Don't have an account? Register now (free) for customized features, flight alerts, and more!